SHT4D EGLL-EGAC
Flight info
| Callsign | SHT4D |
|---|---|
| Flight time | 0h 54m |
| Altitude | 38000 |
| Route | ULTIB1J ULTIB T420 TNT UL28 RODOL UM65 TENSO L603 BELOX DCT REMSI DCT NINEB M148 MAGEE DCT |
| Aircraft | A319/M-SDE2E3FGHIJ1RWXY/S |
Departure
| Time | 2026-04-22 10:19 |
|---|---|
| Airport | London Heathrow Airport (EGLL) |
Arrival
| Time | 2026-04-22 11:14 |
|---|---|
| Airport | George Best Belfast City Airport (EGAC) |
| Time | Latitude | Longitude | Altitude | Speed | Heading |
|---|---|---|---|---|---|
| 2026-04-22 10:05 | 51.46932 | -0.48647 | 86 ft | 0 kts | 360° |
| 2026-04-22 10:07 | 51.46931 | -0.48647 | 86 ft | 2 kts | 360° |
| 2026-04-22 10:07 | 51.46905 | -0.48647 | 90 ft | 4 kts | 360° |
| 2026-04-22 10:08 | 51.46883 | -0.48644 | 86 ft | 4 kts | 310° |
| 2026-04-22 10:08 | 51.46877 | -0.48617 | 86 ft | 3 kts | 270° |
| 2026-04-22 10:08 | 51.46877 | -0.48595 | 88 ft | 0 kts | 270° |
| 2026-04-22 10:12 | 51.46877 | -0.48601 | 86 ft | 3 kts | 270° |
| 2026-04-22 10:12 | 51.46877 | -0.48685 | 88 ft | 10 kts | 267° |
| 2026-04-22 10:13 | 51.46845 | -0.48750 | 90 ft | 8 kts | 188° |
| 2026-04-22 10:13 | 51.46805 | -0.48749 | 88 ft | 0 kts | 179° |
| 2026-04-22 10:14 | 51.46793 | -0.48749 | 88 ft | 4 kts | 179° |
| 2026-04-22 10:14 | 51.46748 | -0.48748 | 86 ft | 9 kts | 179° |
| 2026-04-22 10:14 | 51.46672 | -0.48746 | 90 ft | 13 kts | 180° |
| 2026-04-22 10:14 | 51.46597 | -0.48769 | 86 ft | 0 kts | 198° |
| 2026-04-22 10:18 | 51.46594 | -0.48770 | 86 ft | 3 kts | 198° |
| 2026-04-22 10:18 | 51.46516 | -0.48775 | 90 ft | 19 kts | 156° |
| 2026-04-22 10:18 | 51.46479 | -0.48573 | 88 ft | 22 kts | 90° |
| 2026-04-22 10:19 | 51.46480 | -0.48075 | 89 ft | 74 kts | 90° |
| 2026-04-22 10:19 | 51.46484 | -0.46935 | 90 ft | 129 kts | 89° |
| 2026-04-22 10:19 | 51.46486 | -0.45282 | 312 ft | 156 kts | 89° |
| 2026-04-22 10:19 | 51.46500 | -0.43535 | 1031 ft | 155 kts | 87° |
| 2026-04-22 10:20 | 51.46582 | -0.41772 | 1600 ft | 168 kts | 78° |
| 2026-04-22 10:20 | 51.47202 | -0.40046 | 1920 ft | 197 kts | 48° |
| 2026-04-22 10:20 | 51.48204 | -0.38324 | 2362 ft | 225 kts | 50° |
| 2026-04-22 10:20 | 51.49298 | -0.36363 | 3130 ft | 240 kts | 52° |
| 2026-04-22 10:21 | 51.50375 | -0.34315 | 4267 ft | 241 kts | 54° |
| 2026-04-22 10:21 | 51.51438 | -0.32208 | 5309 ft | 245 kts | 56° |
| 2026-04-22 10:21 | 51.52365 | -0.29897 | 5786 ft | 246 kts | 71° |
| 2026-04-22 10:21 | 51.53058 | -0.27393 | 5963 ft | 249 kts | 60° |
| 2026-04-22 10:22 | 51.54372 | -0.25515 | 6006 ft | 262 kts | 32° |
| 2026-04-22 10:22 | 51.56182 | -0.24855 | 6015 ft | 276 kts | 4° |
| 2026-04-22 10:22 | 51.58082 | -0.25578 | 6024 ft | 285 kts | 343° |
| 2026-04-22 10:22 | 51.59919 | -0.26807 | 6023 ft | 287 kts | 341° |
| 2026-04-22 10:23 | 51.61754 | -0.28092 | 6023 ft | 287 kts | 341° |
| 2026-04-22 10:23 | 51.63584 | -0.29387 | 6023 ft | 288 kts | 341° |
| 2026-04-22 10:23 | 51.65424 | -0.30676 | 6023 ft | 288 kts | 341° |
| 2026-04-22 10:23 | 51.67263 | -0.31963 | 6023 ft | 288 kts | 341° |
| 2026-04-22 10:24 | 51.69103 | -0.33255 | 6024 ft | 288 kts | 341° |
| 2026-04-22 10:24 | 51.70943 | -0.34550 | 6032 ft | 288 kts | 341° |
| 2026-04-22 10:24 | 51.72791 | -0.35851 | 6639 ft | 290 kts | 341° |
| 2026-04-22 10:24 | 51.74656 | -0.37162 | 7602 ft | 293 kts | 341° |
| 2026-04-22 10:25 | 51.76540 | -0.38481 | 8517 ft | 298 kts | 341° |
| 2026-04-22 10:25 | 51.78459 | -0.39812 | 9423 ft | 302 kts | 341° |
| 2026-04-22 10:25 | 51.80401 | -0.41152 | 10325 ft | 305 kts | 341° |
| 2026-04-22 10:25 | 51.82414 | -0.42518 | 10821 ft | 325 kts | 341° |
| 2026-04-22 10:26 | 51.84577 | -0.43943 | 11213 ft | 344 kts | 341° |
| 2026-04-22 10:26 | 51.86826 | -0.45406 | 11916 ft | 351 kts | 341° |
| 2026-04-22 10:26 | 51.89104 | -0.46874 | 12699 ft | 354 kts | 341° |
| 2026-04-22 10:26 | 51.91376 | -0.48315 | 13169 ft | 356 kts | 341° |
| 2026-04-22 10:27 | 51.93682 | -0.49760 | 13321 ft | 355 kts | 341° |
| 2026-04-22 10:27 | 51.95983 | -0.51194 | 13357 ft | 354 kts | 341° |
| 2026-04-22 10:27 | 51.98283 | -0.52620 | 13358 ft | 354 kts | 341° |
| 2026-04-22 10:27 | 52.00581 | -0.54045 | 13357 ft | 353 kts | 341° |
| 2026-04-22 10:28 | 52.02879 | -0.55473 | 13356 ft | 354 kts | 341° |
| 2026-04-22 10:28 | 52.05180 | -0.56913 | 13356 ft | 355 kts | 341° |
| 2026-04-22 10:28 | 52.07483 | -0.58356 | 13359 ft | 355 kts | 341° |
| 2026-04-22 10:28 | 52.09784 | -0.59801 | 13357 ft | 355 kts | 341° |
| 2026-04-22 10:29 | 52.12088 | -0.61249 | 13358 ft | 355 kts | 341° |
| 2026-04-22 10:29 | 52.14394 | -0.62699 | 13360 ft | 355 kts | 341° |
| 2026-04-22 10:29 | 52.16643 | -0.64401 | 13570 ft | 362 kts | 328° |
| 2026-04-22 10:29 | 52.18676 | -0.66857 | 14317 ft | 364 kts | 324° |
| 2026-04-22 10:30 | 52.20706 | -0.69333 | 15058 ft | 366 kts | 324° |
| 2026-04-22 10:30 | 52.22753 | -0.71820 | 15787 ft | 368 kts | 324° |
| 2026-04-22 10:30 | 52.24813 | -0.74325 | 16510 ft | 370 kts | 324° |
| 2026-04-22 10:30 | 52.26877 | -0.76849 | 17207 ft | 372 kts | 323° |
| 2026-04-22 10:31 | 52.28949 | -0.79399 | 17887 ft | 374 kts | 323° |
| 2026-04-22 10:31 | 52.31030 | -0.81971 | 18540 ft | 376 kts | 323° |
| 2026-04-22 10:31 | 52.33126 | -0.84563 | 19205 ft | 379 kts | 323° |
| 2026-04-22 10:31 | 52.35235 | -0.87172 | 19858 ft | 381 kts | 323° |
| 2026-04-22 10:32 | 52.37358 | -0.89800 | 20503 ft | 384 kts | 323° |
| 2026-04-22 10:32 | 52.39465 | -0.92410 | 21149 ft | 385 kts | 323° |
| 2026-04-22 10:32 | 52.41628 | -0.95096 | 21817 ft | 386 kts | 323° |
| 2026-04-22 10:32 | 52.43738 | -0.97723 | 22433 ft | 387 kts | 323° |
| 2026-04-22 10:33 | 52.45884 | -1.00397 | 23016 ft | 388 kts | 323° |
| 2026-04-22 10:33 | 52.48041 | -1.03087 | 23575 ft | 390 kts | 323° |
| 2026-04-22 10:33 | 52.50201 | -1.05785 | 24110 ft | 391 kts | 323° |
| 2026-04-22 10:33 | 52.52369 | -1.08496 | 24640 ft | 393 kts | 322° |
| 2026-04-22 10:34 | 52.54548 | -1.11221 | 25163 ft | 394 kts | 322° |
| 2026-04-22 10:34 | 52.56731 | -1.13954 | 25662 ft | 395 kts | 322° |
| 2026-04-22 10:34 | 52.58921 | -1.16698 | 26147 ft | 397 kts | 322° |
| 2026-04-22 10:34 | 52.61120 | -1.19453 | 26627 ft | 398 kts | 322° |
| 2026-04-22 10:35 | 52.63324 | -1.22224 | 27088 ft | 400 kts | 322° |
| 2026-04-22 10:35 | 52.65534 | -1.25008 | 27563 ft | 401 kts | 321° |
| 2026-04-22 10:35 | 52.67752 | -1.27808 | 28016 ft | 402 kts | 321° |
| 2026-04-22 10:35 | 52.69986 | -1.30593 | 28466 ft | 404 kts | 324° |
| 2026-04-22 10:36 | 52.72363 | -1.33066 | 28901 ft | 404 kts | 327° |
| 2026-04-22 10:36 | 52.74766 | -1.35510 | 29326 ft | 406 kts | 326° |
| 2026-04-22 10:36 | 52.77174 | -1.37960 | 29735 ft | 407 kts | 326° |
| 2026-04-22 10:36 | 52.79586 | -1.40419 | 30129 ft | 409 kts | 326° |
| 2026-04-22 10:37 | 52.82010 | -1.42901 | 30511 ft | 410 kts | 326° |
| 2026-04-22 10:37 | 52.86777 | -1.48154 | 31148 ft | 413 kts | 315° |
| 2026-04-22 10:37 | 52.88679 | -1.51720 | 31436 ft | 415 kts | 309° |
| 2026-04-22 10:38 | 52.90506 | -1.55444 | 31723 ft | 418 kts | 308° |
| 2026-04-22 10:38 | 52.92330 | -1.59203 | 32056 ft | 419 kts | 308° |
| 2026-04-22 10:38 | 52.94146 | -1.62968 | 32459 ft | 418 kts | 308° |
| 2026-04-22 10:38 | 52.95961 | -1.66734 | 32846 ft | 418 kts | 308° |
| 2026-04-22 10:39 | 52.97779 | -1.70508 | 33185 ft | 418 kts | 308° |
| 2026-04-22 10:39 | 52.99597 | -1.74278 | 33537 ft | 419 kts | 308° |
| 2026-04-22 10:39 | 53.01422 | -1.78062 | 33904 ft | 419 kts | 308° |
| 2026-04-22 10:39 | 53.03247 | -1.81852 | 34239 ft | 420 kts | 308° |
| 2026-04-22 10:40 | 53.05072 | -1.85649 | 34574 ft | 421 kts | 308° |
| 2026-04-22 10:40 | 53.06902 | -1.89459 | 34909 ft | 422 kts | 308° |
| 2026-04-22 10:40 | 53.08734 | -1.93279 | 35244 ft | 423 kts | 308° |
| 2026-04-22 10:40 | 53.10570 | -1.97117 | 35540 ft | 424 kts | 308° |
| 2026-04-22 10:41 | 53.12409 | -2.00961 | 35833 ft | 425 kts | 308° |
| 2026-04-22 10:41 | 53.14254 | -2.04821 | 36124 ft | 426 kts | 308° |
| 2026-04-22 10:41 | 53.16101 | -2.08687 | 36398 ft | 427 kts | 308° |
| 2026-04-22 10:41 | 53.17949 | -2.12570 | 36659 ft | 428 kts | 308° |
| 2026-04-22 10:42 | 53.19794 | -2.16464 | 36988 ft | 428 kts | 308° |
| 2026-04-22 10:42 | 53.21630 | -2.20352 | 37388 ft | 425 kts | 308° |
| 2026-04-22 10:42 | 53.23462 | -2.24233 | 37683 ft | 425 kts | 308° |
| 2026-04-22 10:42 | 53.25296 | -2.28118 | 37922 ft | 427 kts | 308° |
| 2026-04-22 10:43 | 53.27135 | -2.32016 | 38154 ft | 428 kts | 308° |
| 2026-04-22 10:43 | 53.28981 | -2.35923 | 38354 ft | 429 kts | 308° |
| 2026-04-22 10:43 | 53.30834 | -2.39846 | 38423 ft | 430 kts | 308° |
| 2026-04-22 10:44 | 53.34530 | -2.47724 | 38430 ft | 431 kts | 307° |
| 2026-04-22 10:44 | 53.38223 | -2.55633 | 38429 ft | 431 kts | 307° |
| 2026-04-22 10:45 | 53.41895 | -2.63499 | 38420 ft | 431 kts | 307° |
| 2026-04-22 10:45 | 53.45583 | -2.71423 | 38416 ft | 431 kts | 307° |
| 2026-04-22 10:46 | 53.49265 | -2.79372 | 38420 ft | 431 kts | 307° |
| 2026-04-22 10:46 | 53.52945 | -2.87330 | 38430 ft | 431 kts | 307° |
| 2026-04-22 10:47 | 53.56620 | -2.95296 | 38415 ft | 431 kts | 307° |
| 2026-04-22 10:47 | 53.60285 | -3.03292 | 38422 ft | 431 kts | 307° |
| 2026-04-22 10:48 | 53.63944 | -3.11307 | 38427 ft | 432 kts | 307° |
| 2026-04-22 10:48 | 53.67611 | -3.19343 | 38426 ft | 432 kts | 307° |
| 2026-04-22 10:49 | 53.71267 | -3.27380 | 38429 ft | 432 kts | 306° |
| 2026-04-22 10:49 | 53.74919 | -3.35450 | 38424 ft | 433 kts | 306° |
| 2026-04-22 10:50 | 53.78571 | -3.43543 | 38423 ft | 433 kts | 306° |
| 2026-04-22 10:50 | 53.82224 | -3.51665 | 38429 ft | 434 kts | 306° |
| 2026-04-22 10:51 | 53.85879 | -3.59793 | 38422 ft | 433 kts | 306° |
| 2026-04-22 10:51 | 53.88914 | -3.66558 | 38420 ft | 434 kts | 306° |
| 2026-04-22 10:52 | 53.92559 | -3.74727 | 38417 ft | 435 kts | 306° |
| 2026-04-22 10:52 | 53.96151 | -3.82977 | 38422 ft | 435 kts | 301° |
| 2026-04-22 10:53 | 53.99169 | -3.91875 | 37933 ft | 437 kts | 298° |
| 2026-04-22 10:53 | 54.00691 | -3.96374 | 37245 ft | 440 kts | 298° |
| 2026-04-22 10:53 | 54.02221 | -4.00892 | 36568 ft | 442 kts | 299° |
| 2026-04-22 10:53 | 54.03742 | -4.05394 | 36211 ft | 434 kts | 299° |
| 2026-04-22 10:54 | 54.05219 | -4.09782 | 35724 ft | 424 kts | 298° |
| 2026-04-22 10:54 | 54.06747 | -4.14060 | 34773 ft | 422 kts | 304° |
| 2026-04-22 10:54 | 54.08440 | -4.18127 | 33823 ft | 419 kts | 304° |
| 2026-04-22 10:54 | 54.10113 | -4.22153 | 32893 ft | 414 kts | 304° |
| 2026-04-22 10:55 | 54.11762 | -4.26126 | 32128 ft | 406 kts | 304° |
| 2026-04-22 10:55 | 54.13373 | -4.30020 | 31302 ft | 399 kts | 303° |
| 2026-04-22 10:55 | 54.14957 | -4.33858 | 30464 ft | 393 kts | 303° |
| 2026-04-22 10:55 | 54.16520 | -4.37646 | 29610 ft | 387 kts | 303° |
| 2026-04-22 10:56 | 54.18039 | -4.41336 | 28763 ft | 383 kts | 303° |
| 2026-04-22 10:56 | 54.19557 | -4.45032 | 27884 ft | 379 kts | 303° |
| 2026-04-22 10:56 | 54.21059 | -4.48702 | 27001 ft | 375 kts | 304° |
| 2026-04-22 10:56 | 54.22549 | -4.52341 | 26117 ft | 372 kts | 304° |
| 2026-04-22 10:57 | 54.24025 | -4.55945 | 25237 ft | 369 kts | 304° |
| 2026-04-22 10:57 | 54.25491 | -4.59531 | 24404 ft | 366 kts | 304° |
| 2026-04-22 10:57 | 54.26943 | -4.63092 | 23587 ft | 363 kts | 304° |
| 2026-04-22 10:57 | 54.28381 | -4.66624 | 22746 ft | 361 kts | 304° |
| 2026-04-22 10:58 | 54.29811 | -4.70147 | 21867 ft | 359 kts | 304° |
| 2026-04-22 10:58 | 54.31233 | -4.73655 | 20954 ft | 359 kts | 304° |
| 2026-04-22 10:58 | 54.32656 | -4.77162 | 20042 ft | 358 kts | 304° |
| 2026-04-22 10:58 | 54.34074 | -4.80656 | 19150 ft | 357 kts | 304° |
| 2026-04-22 10:59 | 54.35487 | -4.84140 | 18291 ft | 354 kts | 303° |
| 2026-04-22 10:59 | 54.36611 | -4.87846 | 17455 ft | 349 kts | 285° |
| 2026-04-22 10:59 | 54.37095 | -4.91894 | 16576 ft | 346 kts | 277° |
| 2026-04-22 10:59 | 54.37478 | -4.95979 | 15674 ft | 347 kts | 277° |
| 2026-04-22 11:00 | 54.37845 | -5.00069 | 14846 ft | 347 kts | 277° |
| 2026-04-22 11:00 | 54.38210 | -5.04167 | 14534 ft | 349 kts | 277° |
| 2026-04-22 11:00 | 54.38577 | -5.08297 | 14396 ft | 350 kts | 277° |
| 2026-04-22 11:00 | 54.38943 | -5.12426 | 14426 ft | 352 kts | 277° |
| 2026-04-22 11:01 | 54.39310 | -5.16554 | 14096 ft | 348 kts | 277° |
| 2026-04-22 11:01 | 54.39617 | -5.20665 | 13586 ft | 346 kts | 274° |
| 2026-04-22 11:01 | 54.39867 | -5.24765 | 13066 ft | 345 kts | 274° |
| 2026-04-22 11:01 | 54.40113 | -5.28848 | 12549 ft | 343 kts | 274° |
| 2026-04-22 11:02 | 54.40363 | -5.32917 | 12032 ft | 342 kts | 274° |
| 2026-04-22 11:02 | 54.40614 | -5.36968 | 11504 ft | 341 kts | 274° |
| 2026-04-22 11:02 | 54.40868 | -5.41013 | 10992 ft | 340 kts | 274° |
| 2026-04-22 11:02 | 54.41119 | -5.45019 | 10729 ft | 332 kts | 274° |
| 2026-04-22 11:03 | 54.41362 | -5.48880 | 10598 ft | 320 kts | 274° |
| 2026-04-22 11:03 | 54.41598 | -5.52613 | 10432 ft | 310 kts | 274° |
| 2026-04-22 11:03 | 54.41829 | -5.56274 | 10137 ft | 307 kts | 274° |
| 2026-04-22 11:03 | 54.42058 | -5.59904 | 9784 ft | 306 kts | 274° |
| 2026-04-22 11:04 | 54.42289 | -5.63531 | 9425 ft | 305 kts | 274° |
| 2026-04-22 11:04 | 54.42517 | -5.67153 | 9083 ft | 304 kts | 274° |
| 2026-04-22 11:04 | 54.42741 | -5.70762 | 8751 ft | 303 kts | 274° |
| 2026-04-22 11:04 | 54.42963 | -5.74360 | 8431 ft | 303 kts | 274° |
| 2026-04-22 11:05 | 54.43184 | -5.77940 | 8106 ft | 301 kts | 274° |
| 2026-04-22 11:05 | 54.43406 | -5.81516 | 7777 ft | 301 kts | 274° |
| 2026-04-22 11:05 | 54.43627 | -5.85082 | 7453 ft | 300 kts | 274° |
| 2026-04-22 11:05 | 54.43848 | -5.88638 | 7126 ft | 299 kts | 274° |
| 2026-04-22 11:06 | 54.44066 | -5.92175 | 6800 ft | 297 kts | 274° |
| 2026-04-22 11:06 | 54.44267 | -5.95478 | 6495 ft | 297 kts | 274° |
| 2026-04-22 11:06 | 54.44476 | -5.98954 | 6177 ft | 296 kts | 274° |
| 2026-04-22 11:06 | 54.44466 | -6.02449 | 5912 ft | 287 kts | 260° |
| 2026-04-22 11:07 | 54.44207 | -6.05736 | 5780 ft | 268 kts | 253° |
| 2026-04-22 11:07 | 54.43749 | -6.08751 | 5488 ft | 256 kts | 249° |
| 2026-04-22 11:07 | 54.43526 | -6.11761 | 5124 ft | 253 kts | 275° |
| 2026-04-22 11:07 | 54.44140 | -6.14425 | 4984 ft | 232 kts | 311° |
| 2026-04-22 11:08 | 54.45366 | -6.15985 | 4689 ft | 213 kts | 348° |
| 2026-04-22 11:08 | 54.46752 | -6.16070 | 4245 ft | 192 kts | 28° |
| 2026-04-22 11:08 | 54.47695 | -6.14779 | 3876 ft | 164 kts | 73° |
| 2026-04-22 11:08 | 54.48066 | -6.12920 | 3717 ft | 168 kts | 73° |
| 2026-04-22 11:09 | 54.48556 | -6.11135 | 3497 ft | 161 kts | 71° |
| 2026-04-22 11:09 | 54.49030 | -6.09431 | 3303 ft | 155 kts | 71° |
| 2026-04-22 11:09 | 54.49482 | -6.07805 | 3136 ft | 146 kts | 71° |
| 2026-04-22 11:09 | 54.49912 | -6.06256 | 2975 ft | 141 kts | 71° |
| 2026-04-22 11:10 | 54.50332 | -6.04736 | 2818 ft | 140 kts | 72° |
| 2026-04-22 11:10 | 54.50729 | -6.03209 | 4637 ft | 141 kts | 77° |
| 2026-04-22 11:10 | 54.51145 | -6.01642 | 4253 ft | 144 kts | 72° |
| 2026-04-22 11:10 | 54.51659 | -6.00168 | 3879 ft | 149 kts | 61° |
| 2026-04-22 11:11 | 54.52379 | -5.98860 | 3494 ft | 152 kts | 52° |
| 2026-04-22 11:11 | 54.53183 | -5.97701 | 3100 ft | 150 kts | 47° |
| 2026-04-22 11:11 | 54.54015 | -5.96623 | 2724 ft | 150 kts | 45° |
| 2026-04-22 11:11 | 54.54859 | -5.95579 | 2327 ft | 149 kts | 44° |
| 2026-04-22 11:12 | 54.55708 | -5.94551 | 1938 ft | 149 kts | 43° |
| 2026-04-22 11:12 | 54.56558 | -5.93530 | 1531 ft | 148 kts | 41° |
| 2026-04-22 11:12 | 54.57400 | -5.92523 | 1145 ft | 144 kts | 40° |
| 2026-04-22 11:12 | 54.58185 | -5.91587 | 847 ft | 130 kts | 40° |
| 2026-04-22 11:13 | 54.58908 | -5.90724 | 638 ft | 124 kts | 40° |
| 2026-04-22 11:13 | 54.59610 | -5.89888 | 435 ft | 122 kts | 39° |
| 2026-04-22 11:13 | 54.60303 | -5.89051 | 254 ft | 121 kts | 38° |
| 2026-04-22 11:13 | 54.60999 | -5.88219 | 86 ft | 122 kts | 37° |
| 2026-04-22 11:14 | 54.61660 | -5.87418 | 19 ft | 105 kts | 36° |
| 2026-04-22 11:14 | 54.62029 | -5.86983 | 17 ft | 42 kts | 33° |
| 2026-04-22 11:14 | 54.62268 | -5.86711 | 23 ft | 35 kts | 33° |
| 2026-04-22 11:14 | 54.62420 | -5.86554 | 22 ft | 21 kts | 4° |
| 2026-04-22 11:15 | 54.62441 | -5.86436 | 20 ft | 20 kts | 194° |
| 2026-04-22 11:15 | 54.62342 | -5.86611 | 22 ft | 22 kts | 217° |
| 2026-04-22 11:15 | 54.62203 | -5.86771 | 20 ft | 26 kts | 215° |
| 2026-04-22 11:15 | 54.62040 | -5.86967 | 18 ft | 30 kts | 215° |
| 2026-04-22 11:16 | 54.61863 | -5.87174 | 19 ft | 19 kts | 195° |
| 2026-04-22 11:16 | 54.61769 | -5.87019 | 21 ft | 16 kts | 130° |
| 2026-04-22 11:16 | 54.61654 | -5.87072 | 21 ft | 22 kts | 215° |
| 2026-04-22 11:16 | 54.61529 | -5.87219 | 23 ft | 12 kts | 204° |
| 2026-04-22 11:17 | 54.61473 | -5.87196 | 21 ft | 0 kts | 155° |
| 2026-04-22 11:17 | 54.61466 | -5.87191 | 21 ft | 0 kts | 155° |